sensor_id;sensor_type;location;lat;lon;timestamp;P1;durP1;ratioP1;P2;durP2;ratioP2
22764;SDS011;11549;50.852;3.816;2022-09-09T00:00:53;11.32;;;3.20;;
22764;SDS011;11549;50.852;3.816;2022-09-09T00:03:29;7.55;;;2.92;;
22764;SDS011;11549;50.852;3.816;2022-09-09T00:06:08;10.63;;;3.33;;
22764;SDS011;11549;50.852;3.816;2022-09-09T00:08:46;8.63;;;2.72;;
22764;SDS011;11549;50.852;3.816;2022-09-09T00:11:29;11.07;;;3.40;;
22764;SDS011;11549;50.852;3.816;2022-09-09T00:14:03;10.50;;;3.15;;
22764;SDS011;11549;50.852;3.816;2022-09-09T00:16:41;11.45;;;3.13;;
22764;SDS011;11549;50.852;3.816;2022-09-09T00:19:16;10.45;;;2.95;;
22764;SDS011;11549;50.852;3.816;2022-09-09T00:21:53;7.18;;;3.13;;
22764;SDS011;11549;50.852;3.816;2022-09-09T00:24:29;8.38;;;3.13;;
22764;SDS011;11549;50.852;3.816;2022-09-09T00:27:04;11.80;;;2.90;;
22764;SDS011;11549;50.852;3.816;2022-09-09T00:32:12;8.15;;;2.70;;
22764;SDS011;11549;50.852;3.816;2022-09-09T00:34:47;6.80;;;2.70;;
22764;SDS011;11549;50.852;3.816;2022-09-09T00:37:19;7.28;;;2.83;;
22764;SDS011;11549;50.852;3.816;2022-09-09T00:39:50;9.20;;;3.20;;
22764;SDS011;11549;50.852;3.816;2022-09-09T00:42:23;11.98;;;3.60;;
22764;SDS011;11549;50.852;3.816;2022-09-09T00:44:56;10.43;;;3.30;;
22764;SDS011;11549;50.852;3.816;2022-09-09T00:47:39;7.20;;;2.92;;
22764;SDS011;11549;50.852;3.816;2022-09-09T00:50:15;9.13;;;3.10;;
22764;SDS011;11549;50.852;3.816;2022-09-09T00:53:05;10.63;;;3.10;;
22764;SDS011;11549;50.852;3.816;2022-09-09T00:55:46;7.88;;;2.67;;
22764;SDS011;11549;50.852;3.816;2022-09-09T00:58:21;9.18;;;2.88;;
22764;SDS011;11549;50.852;3.816;2022-09-09T01:00:50;8.02;;;2.95;;
22764;SDS011;11549;50.852;3.816;2022-09-09T01:03:25;7.68;;;2.50;;
22764;SDS011;11549;50.852;3.816;2022-09-09T01:06:02;9.23;;;2.90;;
22764;SDS011;11549;50.852;3.816;2022-09-09T01:08:58;8.13;;;2.50;;
22764;SDS011;11549;50.852;3.816;2022-09-09T01:11:41;5.93;;;2.35;;
22764;SDS011;11549;50.852;3.816;2022-09-09T01:14:20;7.55;;;2.72;;
22764;SDS011;11549;50.852;3.816;2022-09-09T01:16:58;6.68;;;2.40;;
22764;SDS011;11549;50.852;3.816;2022-09-09T01:19:35;10.63;;;2.70;;
22764;SDS011;11549;50.852;3.816;2022-09-09T01:22:15;10.45;;;2.72;;
22764;SDS011;11549;50.852;3.816;2022-09-09T01:24:54;7.13;;;2.50;;
22764;SDS011;11549;50.852;3.816;2022-09-09T01:27:41;7.63;;;2.50;;
22764;SDS011;11549;50.852;3.816;2022-09-09T01:30:10;8.23;;;2.25;;
22764;SDS011;11549;50.852;3.816;2022-09-09T01:32:42;8.35;;;2.53;;
22764;SDS011;11549;50.852;3.816;2022-09-09T01:35:17;6.47;;;2.30;;
22764;SDS011;11549;50.852;3.816;2022-09-09T01:37:55;7.77;;;2.60;;
22764;SDS011;11549;50.852;3.816;2022-09-09T01:40:24;8.85;;;2.50;;
22764;SDS011;11549;50.852;3.816;2022-09-09T01:42:54;9.35;;;2.47;;
22764;SDS011;11549;50.852;3.816;2022-09-09T01:45:24;8.07;;;2.22;;
22764;SDS011;11549;50.852;3.816;2022-09-09T01:47:53;9.20;;;2.55;;
22764;SDS011;11549;50.852;3.816;2022-09-09T01:50:21;8.40;;;2.58;;
22764;SDS011;11549;50.852;3.816;2022-09-09T01:52:50;8.38;;;2.40;;
22764;SDS011;11549;50.852;3.816;2022-09-09T01:55:23;11.27;;;2.60;;
22764;SDS011;11549;50.852;3.816;2022-09-09T01:58:01;7.60;;;2.45;;
22764;SDS011;11549;50.852;3.816;2022-09-09T02:00:49;8.40;;;2.67;;
22764;SDS011;11549;50.852;3.816;2022-09-09T02:03:25;9.25;;;2.85;;
22764;SDS011;11549;50.852;3.816;2022-09-09T02:05:58;9.13;;;2.80;;
22764;SDS011;11549;50.852;3.816;2022-09-09T02:08:35;9.30;;;3.03;;
22764;SDS011;11549;50.852;3.816;2022-09-09T02:11:09;7.95;;;2.88;;
22764;SDS011;11549;50.852;3.816;2022-09-09T02:13:43;11.48;;;2.88;;
22764;SDS011;11549;50.852;3.816;2022-09-09T02:16:14;9.40;;;2.95;;
22764;SDS011;11549;50.852;3.816;2022-09-09T02:18:48;10.40;;;3.33;;
22764;SDS011;11549;50.852;3.816;2022-09-09T02:21:19;9.43;;;3.28;;
22764;SDS011;11549;50.852;3.816;2022-09-09T02:23:49;9.60;;;2.85;;
22764;SDS011;11549;50.852;3.816;2022-09-09T02:26:22;9.25;;;2.85;;
22764;SDS011;11549;50.852;3.816;2022-09-09T02:28:56;9.43;;;2.85;;
22764;SDS011;11549;50.852;3.816;2022-09-09T02:31:27;7.43;;;2.70;;
22764;SDS011;11549;50.852;3.816;2022-09-09T02:33:56;11.70;;;2.95;;
22764;SDS011;11549;50.852;3.816;2022-09-09T02:36:29;11.35;;;2.72;;
22764;SDS011;11549;50.852;3.816;2022-09-09T02:39:03;12.18;;;2.75;;
22764;SDS011;11549;50.852;3.816;2022-09-09T02:41:36;11.98;;;3.63;;
22764;SDS011;11549;50.852;3.816;2022-09-09T02:44:08;11.02;;;3.33;;
22764;SDS011;11549;50.852;3.816;2022-09-09T02:46:57;10.95;;;3.22;;
22764;SDS011;11549;50.852;3.816;2022-09-09T02:49:40;8.63;;;2.72;;
22764;SDS011;11549;50.852;3.816;2022-09-09T02:52:17;12.13;;;2.88;;
22764;SDS011;11549;50.852;3.816;2022-09-09T02:54:49;11.00;;;2.78;;
22764;SDS011;11549;50.852;3.816;2022-09-09T02:57:22;10.57;;;2.95;;
22764;SDS011;11549;50.852;3.816;2022-09-09T02:59:56;11.30;;;3.30;;
22764;SDS011;11549;50.852;3.816;2022-09-09T03:02:25;14.15;;;3.25;;
22764;SDS011;11549;50.852;3.816;2022-09-09T03:04:54;13.73;;;3.00;;
22764;SDS011;11549;50.852;3.816;2022-09-09T03:07:22;11.98;;;3.10;;
22764;SDS011;11549;50.852;3.816;2022-09-09T03:09:51;12.68;;;3.25;;
22764;SDS011;11549;50.852;3.816;2022-09-09T03:12:21;10.65;;;3.13;;
22764;SDS011;11549;50.852;3.816;2022-09-09T03:14:49;12.93;;;3.65;;
22764;SDS011;11549;50.852;3.816;2022-09-09T03:17:19;12.07;;;3.20;;
22764;SDS011;11549;50.852;3.816;2022-09-09T03:19:48;11.23;;;3.25;;
22764;SDS011;11549;50.852;3.816;2022-09-09T03:22:18;14.77;;;3.40;;
22764;SDS011;11549;50.852;3.816;2022-09-09T03:24:47;12.50;;;3.85;;
22764;SDS011;11549;50.852;3.816;2022-09-09T03:27:15;14.63;;;3.40;;
22764;SDS011;11549;50.852;3.816;2022-09-09T03:29:44;10.68;;;3.05;;
22764;SDS011;11549;50.852;3.816;2022-09-09T03:32:12;11.70;;;3.22;;
22764;SDS011;11549;50.852;3.816;2022-09-09T03:34:43;13.13;;;3.28;;
22764;SDS011;11549;50.852;3.816;2022-09-09T03:37:16;9.88;;;3.20;;
22764;SDS011;11549;50.852;3.816;2022-09-09T03:39:45;11.13;;;3.17;;
22764;SDS011;11549;50.852;3.816;2022-09-09T03:42:14;13.65;;;3.05;;
22764;SDS011;11549;50.852;3.816;2022-09-09T03:44:45;13.43;;;3.33;;
22764;SDS011;11549;50.852;3.816;2022-09-09T03:47:16;18.92;;;3.72;;
22764;SDS011;11549;50.852;3.816;2022-09-09T03:49:47;13.77;;;3.22;;
22764;SDS011;11549;50.852;3.816;2022-09-09T03:52:16;11.27;;;3.20;;
22764;SDS011;11549;50.852;3.816;2022-09-09T03:54:49;14.85;;;3.38;;
22764;SDS011;11549;50.852;3.816;2022-09-09T03:57:17;13.60;;;2.88;;
22764;SDS011;11549;50.852;3.816;2022-09-09T03:59:46;11.38;;;3.17;;
22764;SDS011;11549;50.852;3.816;2022-09-09T04:02:14;13.40;;;3.05;;
22764;SDS011;11549;50.852;3.816;2022-09-09T04:04:43;17.48;;;2.97;;
22764;SDS011;11549;50.852;3.816;2022-09-09T04:07:13;17.58;;;3.83;;
22764;SDS011;11549;50.852;3.816;2022-09-09T04:09:42;14.52;;;3.22;;
22764;SDS011;11549;50.852;3.816;2022-09-09T04:12:11;15.57;;;3.42;;
22764;SDS011;11549;50.852;3.816;2022-09-09T04:14:39;13.65;;;3.17;;
22764;SDS011;11549;50.852;3.816;2022-09-09T04:17:08;12.48;;;3.20;;
22764;SDS011;11549;50.852;3.816;2022-09-09T04:19:36;11.23;;;3.40;;
22764;SDS011;11549;50.852;3.816;2022-09-09T04:22:20;12.05;;;3.30;;
22764;SDS011;11549;50.852;3.816;2022-09-09T04:24:48;14.18;;;3.50;;
22764;SDS011;11549;50.852;3.816;2022-09-09T04:27:17;13.05;;;3.30;;
22764;SDS011;11549;50.852;3.816;2022-09-09T04:29:45;16.08;;;3.40;;
22764;SDS011;11549;50.852;3.816;2022-09-09T04:32:14;15.52;;;3.25;;
22764;SDS011;11549;50.852;3.816;2022-09-09T04:34:42;15.02;;;3.00;;
22764;SDS011;11549;50.852;3.816;2022-09-09T04:37:11;14.95;;;3.45;;
22764;SDS011;11549;50.852;3.816;2022-09-09T04:39:42;17.00;;;3.25;;
22764;SDS011;11549;50.852;3.816;2022-09-09T04:42:11;17.08;;;3.30;;
22764;SDS011;11549;50.852;3.816;2022-09-09T04:44:39;18.75;;;4.00;;
22764;SDS011;11549;50.852;3.816;2022-09-09T04:47:08;16.88;;;3.50;;
22764;SDS011;11549;50.852;3.816;2022-09-09T04:49:37;13.07;;;3.00;;
22764;SDS011;11549;50.852;3.816;2022-09-09T04:52:05;11.68;;;3.20;;
22764;SDS011;11549;50.852;3.816;2022-09-09T04:54:34;15.13;;;3.75;;
22764;SDS011;11549;50.852;3.816;2022-09-09T04:57:04;14.50;;;3.35;;
22764;SDS011;11549;50.852;3.816;2022-09-09T04:59:33;13.38;;;3.30;;
22764;SDS011;11549;50.852;3.816;2022-09-09T05:02:01;13.10;;;3.70;;
22764;SDS011;11549;50.852;3.816;2022-09-09T05:04:30;15.25;;;3.33;;
22764;SDS011;11549;50.852;3.816;2022-09-09T05:06:59;14.02;;;3.33;;
22764;SDS011;11549;50.852;3.816;2022-09-09T05:09:28;15.00;;;3.35;;
22764;SDS011;11549;50.852;3.816;2022-09-09T05:11:56;15.75;;;3.42;;
22764;SDS011;11549;50.852;3.816;2022-09-09T05:14:26;12.35;;;3.10;;
22764;SDS011;11549;50.852;3.816;2022-09-09T05:16:54;13.77;;;3.58;;
22764;SDS011;11549;50.852;3.816;2022-09-09T05:19:24;18.80;;;3.28;;
22764;SDS011;11549;50.852;3.816;2022-09-09T05:21:52;14.10;;;3.22;;
22764;SDS011;11549;50.852;3.816;2022-09-09T05:24:21;13.45;;;3.13;;
22764;SDS011;11549;50.852;3.816;2022-09-09T05:26:49;14.25;;;3.38;;
22764;SDS011;11549;50.852;3.816;2022-09-09T05:29:18;16.50;;;3.20;;
22764;SDS011;11549;50.852;3.816;2022-09-09T05:31:48;13.70;;;3.38;;
22764;SDS011;11549;50.852;3.816;2022-09-09T05:34:16;14.48;;;3.28;;
22764;SDS011;11549;50.852;3.816;2022-09-09T05:36:46;14.48;;;3.50;;
22764;SDS011;11549;50.852;3.816;2022-09-09T05:39:14;16.63;;;3.63;;
22764;SDS011;11549;50.852;3.816;2022-09-09T05:41:42;12.82;;;3.08;;
22764;SDS011;11549;50.852;3.816;2022-09-09T05:44:11;16.05;;;3.40;;
22764;SDS011;11549;50.852;3.816;2022-09-09T05:46:40;12.82;;;3.38;;
22764;SDS011;11549;50.852;3.816;2022-09-09T05:49:10;12.88;;;2.78;;
22764;SDS011;11549;50.852;3.816;2022-09-09T05:51:39;12.38;;;3.28;;
22764;SDS011;11549;50.852;3.816;2022-09-09T05:54:09;16.17;;;3.47;;
22764;SDS011;11549;50.852;3.816;2022-09-09T05:56:39;13.88;;;3.72;;
22764;SDS011;11549;50.852;3.816;2022-09-09T05:59:08;17.38;;;2.85;;
22764;SDS011;11549;50.852;3.816;2022-09-09T06:01:38;13.25;;;3.20;;
22764;SDS011;11549;50.852;3.816;2022-09-09T06:04:07;14.45;;;3.22;;
22764;SDS011;11549;50.852;3.816;2022-09-09T06:06:38;12.48;;;3.20;;
22764;SDS011;11549;50.852;3.816;2022-09-09T06:09:08;11.52;;;2.65;;
22764;SDS011;11549;50.852;3.816;2022-09-09T06:11:38;13.60;;;2.90;;
22764;SDS011;11549;50.852;3.816;2022-09-09T06:14:07;14.32;;;3.13;;
22764;SDS011;11549;50.852;3.816;2022-09-09T06:16:36;13.73;;;3.13;;
22764;SDS011;11549;50.852;3.816;2022-09-09T06:19:05;15.55;;;2.88;;
22764;SDS011;11549;50.852;3.816;2022-09-09T06:21:35;17.08;;;3.15;;
22764;SDS011;11549;50.852;3.816;2022-09-09T06:24:04;11.57;;;3.13;;
22764;SDS011;11549;50.852;3.816;2022-09-09T06:26:34;11.27;;;2.90;;
22764;SDS011;11549;50.852;3.816;2022-09-09T06:29:04;12.63;;;2.72;;
22764;SDS011;11549;50.852;3.816;2022-09-09T06:31:33;17.95;;;2.80;;
22764;SDS011;11549;50.852;3.816;2022-09-09T06:34:04;12.82;;;2.83;;
22764;SDS011;11549;50.852;3.816;2022-09-09T06:36:36;13.75;;;2.90;;
22764;SDS011;11549;50.852;3.816;2022-09-09T06:39:06;11.00;;;2.92;;
22764;SDS011;11549;50.852;3.816;2022-09-09T06:41:40;10.50;;;2.55;;
22764;SDS011;11549;50.852;3.816;2022-09-09T06:44:09;9.68;;;2.70;;
22764;SDS011;11549;50.852;3.816;2022-09-09T06:46:39;14.35;;;3.25;;
22764;SDS011;11549;50.852;3.816;2022-09-09T06:49:07;12.73;;;2.90;;
22764;SDS011;11549;50.852;3.816;2022-09-09T06:51:38;14.45;;;3.20;;
22764;SDS011;11549;50.852;3.816;2022-09-09T06:54:09;11.93;;;2.70;;
22764;SDS011;11549;50.852;3.816;2022-09-09T06:56:39;14.27;;;3.28;;
22764;SDS011;11549;50.852;3.816;2022-09-09T06:59:10;14.25;;;3.40;;
22764;SDS011;11549;50.852;3.816;2022-09-09T07:01:39;15.48;;;3.13;;
22764;SDS011;11549;50.852;3.816;2022-09-09T07:04:10;11.32;;;2.72;;
22764;SDS011;11549;50.852;3.816;2022-09-09T07:06:41;10.45;;;2.38;;
22764;SDS011;11549;50.852;3.816;2022-09-09T07:09:13;12.25;;;2.72;;
22764;SDS011;11549;50.852;3.816;2022-09-09T07:11:43;13.75;;;3.08;;
22764;SDS011;11549;50.852;3.816;2022-09-09T07:14:13;11.35;;;2.70;;
22764;SDS011;11549;50.852;3.816;2022-09-09T07:16:41;13.05;;;3.25;;
22764;SDS011;11549;50.852;3.816;2022-09-09T07:19:10;7.32;;;2.80;;
22764;SDS011;11549;50.852;3.816;2022-09-09T07:21:42;13.15;;;2.92;;
22764;SDS011;11549;50.852;3.816;2022-09-09T07:24:11;12.38;;;3.30;;
22764;SDS011;11549;50.852;3.816;2022-09-09T07:26:40;12.43;;;2.63;;
22764;SDS011;11549;50.852;3.816;2022-09-09T07:29:09;9.90;;;2.67;;
22764;SDS011;11549;50.852;3.816;2022-09-09T07:31:46;11.65;;;2.70;;
22764;SDS011;11549;50.852;3.816;2022-09-09T07:34:14;11.88;;;2.47;;
22764;SDS011;11549;50.852;3.816;2022-09-09T07:36:44;13.15;;;2.63;;
22764;SDS011;11549;50.852;3.816;2022-09-09T07:39:13;11.30;;;3.05;;
22764;SDS011;11549;50.852;3.816;2022-09-09T07:41:44;14.00;;;2.90;;
22764;SDS011;11549;50.852;3.816;2022-09-09T07:44:14;12.05;;;2.70;;
22764;SDS011;11549;50.852;3.816;2022-09-09T07:46:44;12.60;;;2.75;;
22764;SDS011;11549;50.852;3.816;2022-09-09T07:49:14;11.60;;;2.60;;
22764;SDS011;11549;50.852;3.816;2022-09-09T07:51:54;12.88;;;2.80;;
22764;SDS011;11549;50.852;3.816;2022-09-09T07:54:23;10.60;;;2.97;;
22764;SDS011;11549;50.852;3.816;2022-09-09T07:56:52;12.65;;;2.78;;
22764;SDS011;11549;50.852;3.816;2022-09-09T07:59:21;11.20;;;2.85;;
22764;SDS011;11549;50.852;3.816;2022-09-09T08:01:52;12.65;;;2.58;;
22764;SDS011;11549;50.852;3.816;2022-09-09T08:04:22;11.68;;;2.70;;
22764;SDS011;11549;50.852;3.816;2022-09-09T08:06:52;15.55;;;2.85;;
22764;SDS011;11549;50.852;3.816;2022-09-09T08:09:25;13.30;;;2.95;;
22764;SDS011;11549;50.852;3.816;2022-09-09T08:11:56;11.98;;;3.30;;
22764;SDS011;11549;50.852;3.816;2022-09-09T08:14:24;11.55;;;2.75;;
22764;SDS011;11549;50.852;3.816;2022-09-09T08:16:53;8.77;;;2.58;;
22764;SDS011;11549;50.852;3.816;2022-09-09T08:19:22;9.90;;;2.80;;
22764;SDS011;11549;50.852;3.816;2022-09-09T08:21:51;13.88;;;3.38;;
22764;SDS011;11549;50.852;3.816;2022-09-09T08:24:21;10.38;;;2.90;;
22764;SDS011;11549;50.852;3.816;2022-09-09T08:26:50;13.40;;;3.25;;
22764;SDS011;11549;50.852;3.816;2022-09-09T08:29:19;11.25;;;2.90;;
22764;SDS011;11549;50.852;3.816;2022-09-09T08:31:48;9.18;;;2.90;;
22764;SDS011;11549;50.852;3.816;2022-09-09T08:34:19;11.13;;;2.90;;
22764;SDS011;11549;50.852;3.816;2022-09-09T08:36:48;11.55;;;3.17;;
22764;SDS011;11549;50.852;3.816;2022-09-09T08:39:18;12.35;;;3.00;;
22764;SDS011;11549;50.852;3.816;2022-09-09T08:42:02;9.93;;;2.95;;
22764;SDS011;11549;50.852;3.816;2022-09-09T08:45:00;12.03;;;2.60;;
22764;SDS011;11549;50.852;3.816;2022-09-09T08:47:48;11.05;;;2.97;;
22764;SDS011;11549;50.852;3.816;2022-09-09T08:50:28;9.35;;;2.67;;
22764;SDS011;11549;50.852;3.816;2022-09-09T08:53:01;7.95;;;2.60;;
22764;SDS011;11549;50.852;3.816;2022-09-09T08:55:35;10.68;;;3.15;;
22764;SDS011;11549;50.852;3.816;2022-09-09T08:58:12;10.45;;;2.60;;
22764;SDS011;11549;50.852;3.816;2022-09-09T09:00:59;8.93;;;2.70;;
22764;SDS011;11549;50.852;3.816;2022-09-09T09:03:48;12.30;;;2.47;;
22764;SDS011;11549;50.852;3.816;2022-09-09T09:06:26;9.48;;;2.47;;
22764;SDS011;11549;50.852;3.816;2022-09-09T09:09:08;10.13;;;3.07;;
22764;SDS011;11549;50.852;3.816;2022-09-09T09:11:45;9.00;;;2.50;;
22764;SDS011;11549;50.852;3.816;2022-09-09T09:14:18;8.60;;;2.30;;
22764;SDS011;11549;50.852;3.816;2022-09-09T09:16:51;11.40;;;2.55;;
22764;SDS011;11549;50.852;3.816;2022-09-09T09:19:23;10.70;;;3.15;;
22764;SDS011;11549;50.852;3.816;2022-09-09T09:21:54;11.18;;;3.17;;
22764;SDS011;11549;50.852;3.816;2022-09-09T09:24:31;9.55;;;2.70;;
22764;SDS011;11549;50.852;3.816;2022-09-09T09:27:11;12.15;;;2.95;;
22764;SDS011;11549;50.852;3.816;2022-09-09T09:29:43;8.82;;;2.55;;
22764;SDS011;11549;50.852;3.816;2022-09-09T09:32:33;10.13;;;2.58;;
22764;SDS011;11549;50.852;3.816;2022-09-09T09:35:06;9.15;;;2.60;;
22764;SDS011;11549;50.852;3.816;2022-09-09T09:37:40;8.43;;;2.47;;
22764;SDS011;11549;50.852;3.816;2022-09-09T09:40:30;11.05;;;3.38;;
22764;SDS011;11549;50.852;3.816;2022-09-09T09:43:01;7.47;;;2.70;;
22764;SDS011;11549;50.852;3.816;2022-09-09T09:48:31;9.80;;;2.80;;
22764;SDS011;11549;50.852;3.816;2022-09-09T09:51:00;5.80;;;2.55;;
22764;SDS011;11549;50.852;3.816;2022-09-09T09:53:36;7.63;;;2.50;;
22764;SDS011;11549;50.852;3.816;2022-09-09T09:56:06;8.63;;;2.80;;
22764;SDS011;11549;50.852;3.816;2022-09-09T09:58:46;7.22;;;2.58;;
22764;SDS011;11549;50.852;3.816;2022-09-09T10:01:20;7.78;;;2.78;;
22764;SDS011;11549;50.852;3.816;2022-09-09T10:03:52;6.65;;;2.58;;
22764;SDS011;11549;50.852;3.816;2022-09-09T10:06:31;8.35;;;2.78;;
22764;SDS011;11549;50.852;3.816;2022-09-09T10:09:01;8.90;;;2.95;;
22764;SDS011;11549;50.852;3.816;2022-09-09T10:11:37;8.88;;;2.75;;
22764;SDS011;11549;50.852;3.816;2022-09-09T10:14:18;6.97;;;2.67;;
22764;SDS011;11549;50.852;3.816;2022-09-09T10:16:59;7.43;;;3.08;;
22764;SDS011;11549;50.852;3.816;2022-09-09T10:19:38;8.77;;;2.83;;
22764;SDS011;11549;50.852;3.816;2022-09-09T10:22:25;8.63;;;2.88;;
22764;SDS011;11549;50.852;3.816;2022-09-09T10:24:59;9.13;;;2.58;;
22764;SDS011;11549;50.852;3.816;2022-09-09T10:27:44;11.55;;;2.60;;
22764;SDS011;11549;50.852;3.816;2022-09-09T10:30:32;8.38;;;2.63;;
22764;SDS011;11549;50.852;3.816;2022-09-09T10:33:13;6.90;;;2.42;;
22764;SDS011;11549;50.852;3.816;2022-09-09T10:35:50;6.80;;;2.28;;
22764;SDS011;11549;50.852;3.816;2022-09-09T10:38:24;7.10;;;2.25;;
22764;SDS011;11549;50.852;3.816;2022-09-09T10:41:06;7.50;;;2.47;;
22764;SDS011;11549;50.852;3.816;2022-09-09T10:43:53;7.50;;;2.40;;
22764;SDS011;11549;50.852;3.816;2022-09-09T10:50:02;7.35;;;2.40;;
22764;SDS011;11549;50.852;3.816;2022-09-09T10:53:14;7.30;;;2.45;;
22764;SDS011;11549;50.852;3.816;2022-09-09T10:55:51;5.95;;;2.10;;
22764;SDS011;11549;50.852;3.816;2022-09-09T11:00:56;3.85;;;1.77;;
22764;SDS011;11549;50.852;3.816;2022-09-09T11:03:29;6.38;;;2.00;;
22764;SDS011;11549;50.852;3.816;2022-09-09T11:06:04;5.57;;;1.90;;
22764;SDS011;11549;50.852;3.816;2022-09-09T11:08:34;4.90;;;1.88;;
22764;SDS011;11549;50.852;3.816;2022-09-09T11:11:06;6.00;;;2.00;;
22764;SDS011;11549;50.852;3.816;2022-09-09T11:13:42;6.22;;;2.10;;
22764;SDS011;11549;50.852;3.816;2022-09-09T11:16:20;5.88;;;2.70;;
22764;SDS011;11549;50.852;3.816;2022-09-09T11:18:55;7.25;;;2.80;;
22764;SDS011;11549;50.852;3.816;2022-09-09T11:21:28;6.43;;;2.57;;
22764;SDS011;11549;50.852;3.816;2022-09-09T11:24:01;7.53;;;2.80;;
22764;SDS011;11549;50.852;3.816;2022-09-09T11:26:36;8.65;;;2.50;;
22764;SDS011;11549;50.852;3.816;2022-09-09T11:29:12;5.70;;;2.13;;
22764;SDS011;11549;50.852;3.816;2022-09-09T11:31:58;7.53;;;2.10;;
22764;SDS011;11549;50.852;3.816;2022-09-09T11:34:37;7.38;;;2.30;;
22764;SDS011;11549;50.852;3.816;2022-09-09T11:37:20;7.78;;;1.98;;
22764;SDS011;11549;50.852;3.816;2022-09-09T11:40:07;8.10;;;2.00;;
22764;SDS011;11549;50.852;3.816;2022-09-09T11:42:41;5.93;;;1.90;;
22764;SDS011;11549;50.852;3.816;2022-09-09T11:45:10;4.80;;;1.70;;
22764;SDS011;11549;50.852;3.816;2022-09-09T11:47:51;8.55;;;2.22;;
22764;SDS011;11549;50.852;3.816;2022-09-09T11:50:28;4.72;;;1.88;;
22764;SDS011;11549;50.852;3.816;2022-09-09T11:53:05;5.88;;;2.20;;
22764;SDS011;11549;50.852;3.816;2022-09-09T11:56:04;5.70;;;2.08;;
22764;SDS011;11549;50.852;3.816;2022-09-09T11:58:38;6.93;;;2.08;;
22764;SDS011;11549;50.852;3.816;2022-09-09T12:01:16;5.50;;;2.33;;
22764;SDS011;11549;50.852;3.816;2022-09-09T12:07:04;5.75;;;2.30;;
22764;SDS011;11549;50.852;3.816;2022-09-09T12:09:52;5.80;;;2.20;;
22764;SDS011;11549;50.852;3.816;2022-09-09T12:12:27;6.43;;;2.03;;
22764;SDS011;11549;50.852;3.816;2022-09-09T12:15:16;5.40;;;2.05;;
22764;SDS011;11549;50.852;3.816;2022-09-09T12:17:55;8.43;;;2.17;;
22764;SDS011;11549;50.852;3.816;2022-09-09T12:20:31;6.05;;;2.10;;
22764;SDS011;11549;50.852;3.816;2022-09-09T12:28:52;5.75;;;1.90;;
22764;SDS011;11549;50.852;3.816;2022-09-09T12:31:28;7.15;;;1.67;;
22764;SDS011;11549;50.852;3.816;2022-09-09T12:34:11;6.18;;;1.70;;
22764;SDS011;11549;50.852;3.816;2022-09-09T12:36:45;6.63;;;1.52;;
22764;SDS011;11549;50.852;3.816;2022-09-09T12:39:19;5.03;;;1.60;;
22764;SDS011;11549;50.852;3.816;2022-09-09T12:41:56;7.60;;;1.90;;
22764;SDS011;11549;50.852;3.816;2022-09-09T12:44:25;4.85;;;1.90;;
22764;SDS011;11549;50.852;3.816;2022-09-09T12:46:56;8.30;;;2.17;;
22764;SDS011;11549;50.852;3.816;2022-09-09T12:49:28;7.32;;;2.22;;
22764;SDS011;11549;50.852;3.816;2022-09-09T12:52:01;4.05;;;1.60;;
22764;SDS011;11549;50.852;3.816;2022-09-09T12:54:33;10.48;;;1.95;;
22764;SDS011;11549;50.852;3.816;2022-09-09T12:57:04;7.22;;;2.20;;
22764;SDS011;11549;50.852;3.816;2022-09-09T12:59:36;5.30;;;1.60;;
22764;SDS011;11549;50.852;3.816;2022-09-09T13:02:11;4.75;;;1.70;;
22764;SDS011;11549;50.852;3.816;2022-09-09T13:04:46;7.80;;;1.90;;
22764;SDS011;11549;50.852;3.816;2022-09-09T13:07:17;6.50;;;1.75;;
22764;SDS011;11549;50.852;3.816;2022-09-09T13:09:46;5.70;;;1.52;;
22764;SDS011;11549;50.852;3.816;2022-09-09T13:12:18;5.63;;;1.70;;
22764;SDS011;11549;50.852;3.816;2022-09-09T13:14:49;5.07;;;1.40;;
22764;SDS011;11549;50.852;3.816;2022-09-09T13:17:22;7.82;;;1.45;;
22764;SDS011;11549;50.852;3.816;2022-09-09T13:19:51;4.40;;;1.35;;
22764;SDS011;11549;50.852;3.816;2022-09-09T13:22:23;4.70;;;1.40;;
22764;SDS011;11549;50.852;3.816;2022-09-09T13:25:01;5.13;;;1.23;;
22764;SDS011;11549;50.852;3.816;2022-09-09T13:27:34;6.43;;;1.63;;
22764;SDS011;11549;50.852;3.816;2022-09-09T13:33:00;4.38;;;1.20;;
22764;SDS011;11549;50.852;3.816;2022-09-09T13:35:30;5.60;;;1.40;;
22764;SDS011;11549;50.852;3.816;2022-09-09T13:37:59;4.78;;;1.45;;
22764;SDS011;11549;50.852;3.816;2022-09-09T13:40:35;6.38;;;1.48;;
22764;SDS011;11549;50.852;3.816;2022-09-09T13:43:10;10.20;;;1.70;;
22764;SDS011;11549;50.852;3.816;2022-09-09T13:45:52;4.85;;;1.58;;
22764;SDS011;11549;50.852;3.816;2022-09-09T13:48:27;5.32;;;1.38;;
22764;SDS011;11549;50.852;3.816;2022-09-09T13:50:57;6.63;;;1.50;;
22764;SDS011;11549;50.852;3.816;2022-09-09T13:53:27;3.78;;;1.33;;
22764;SDS011;11549;50.852;3.816;2022-09-09T13:55:57;5.70;;;1.50;;
22764;SDS011;11549;50.852;3.816;2022-09-09T13:58:27;4.50;;;1.38;;
22764;SDS011;11549;50.852;3.816;2022-09-09T14:00:56;5.82;;;1.30;;
22764;SDS011;11549;50.852;3.816;2022-09-09T14:03:25;4.18;;;1.33;;
22764;SDS011;11549;50.852;3.816;2022-09-09T14:05:53;5.43;;;1.52;;
22764;SDS011;11549;50.852;3.816;2022-09-09T14:08:23;6.28;;;1.58;;
22764;SDS011;11549;50.852;3.816;2022-09-09T14:10:55;5.10;;;1.50;;
22764;SDS011;11549;50.852;3.816;2022-09-09T14:13:24;4.50;;;1.50;;
22764;SDS011;11549;50.852;3.816;2022-09-09T14:15:54;5.13;;;1.45;;
22764;SDS011;11549;50.852;3.816;2022-09-09T14:18:23;3.97;;;1.60;;
22764;SDS011;11549;50.852;3.816;2022-09-09T14:20:52;6.43;;;1.55;;
22764;SDS011;11549;50.852;3.816;2022-09-09T14:23:20;7.50;;;1.83;;
22764;SDS011;11549;50.852;3.816;2022-09-09T14:25:50;6.45;;;1.50;;
22764;SDS011;11549;50.852;3.816;2022-09-09T14:28:19;3.95;;;1.30;;
22764;SDS011;11549;50.852;3.816;2022-09-09T14:31:08;4.70;;;1.50;;
22764;SDS011;11549;50.852;3.816;2022-09-09T14:33:37;5.05;;;1.60;;
22764;SDS011;11549;50.852;3.816;2022-09-09T14:36:05;4.20;;;1.48;;
22764;SDS011;11549;50.852;3.816;2022-09-09T14:38:37;5.60;;;1.40;;
22764;SDS011;11549;50.852;3.816;2022-09-09T14:43:43;6.90;;;1.50;;
22764;SDS011;11549;50.852;3.816;2022-09-09T14:46:13;5.07;;;1.60;;
22764;SDS011;11549;50.852;3.816;2022-09-09T14:48:43;3.88;;;1.30;;
22764;SDS011;11549;50.852;3.816;2022-09-09T14:51:16;5.18;;;1.73;;
22764;SDS011;11549;50.852;3.816;2022-09-09T14:53:46;6.72;;;2.00;;
22764;SDS011;11549;50.852;3.816;2022-09-09T14:56:15;5.93;;;1.63;;
22764;SDS011;11549;50.852;3.816;2022-09-09T14:58:45;5.07;;;1.88;;
22764;SDS011;11549;50.852;3.816;2022-09-09T15:01:16;4.13;;;1.38;;
22764;SDS011;11549;50.852;3.816;2022-09-09T15:03:48;6.63;;;1.55;;
22764;SDS011;11549;50.852;3.816;2022-09-09T15:06:18;5.72;;;1.60;;
22764;SDS011;11549;50.852;3.816;2022-09-09T15:08:49;4.82;;;1.42;;
22764;SDS011;11549;50.852;3.816;2022-09-09T15:11:19;4.93;;;1.50;;
22764;SDS011;11549;50.852;3.816;2022-09-09T15:13:50;4.07;;;1.60;;
22764;SDS011;11549;50.852;3.816;2022-09-09T15:16:21;5.63;;;1.75;;
22764;SDS011;11549;50.852;3.816;2022-09-09T15:18:52;6.38;;;1.58;;
22764;SDS011;11549;50.852;3.816;2022-09-09T15:21:21;4.35;;;1.70;;
22764;SDS011;11549;50.852;3.816;2022-09-09T15:23:51;4.93;;;1.83;;
22764;SDS011;11549;50.852;3.816;2022-09-09T15:26:19;5.00;;;1.83;;
22764;SDS011;11549;50.852;3.816;2022-09-09T15:28:48;6.47;;;2.00;;
22764;SDS011;11549;50.852;3.816;2022-09-09T15:31:18;8.43;;;2.17;;
22764;SDS011;11549;50.852;3.816;2022-09-09T15:33:49;7.30;;;2.20;;
22764;SDS011;11549;50.852;3.816;2022-09-09T15:36:19;10.57;;;3.17;;
22764;SDS011;11549;50.852;3.816;2022-09-09T15:38:49;9.73;;;2.50;;
22764;SDS011;11549;50.852;3.816;2022-09-09T15:41:18;5.05;;;1.88;;